Donahue, Iowa
Current Conditions -  °F | °C
As of 7:06 PM on Tuesday 27 Jan 2015 (Local Time) from KDVN Reporting Station
Overcast Overcast  
Wind Chill: 21°   Ceiling: 1400
Heat Index: 26°   Visibility: 7mi
Dew Point: 20°   Wind: 5mph
Humidity: 78%   Direction: 120°ESE
Pressure: 30.24"   Gusts: NA
Location:  41.69°N, 90.68°W
Report Text: KDVN 280106Z AUTO 12004KT 7SM OVC014 M03/M07 A3024 RMK AO2 T10331067
Loading
Personal Weather Stations






























Interactive Weather Map New forecast layout! Learn more

10-Day Weather Forecast

Advertisements
Track Severe Weather on mobile